createdAt,value
2018-07-31T00:00:49.108Z,11.43
2018-07-31T00:03:17.918Z,5.90
2018-07-31T00:05:46.643Z,6.83
2018-07-31T00:08:15.337Z,12.00
2018-07-31T00:10:44.076Z,5.83
2018-07-31T00:13:12.843Z,5.70
2018-07-31T00:15:41.520Z,6.57
2018-07-31T00:18:10.305Z,8.07
2018-07-31T00:20:39.196Z,7.10
2018-07-31T00:23:08.005Z,5.57
2018-07-31T00:25:36.758Z,5.43
2018-07-31T00:28:06.144Z,12.03
2018-07-31T00:30:34.871Z,7.73
2018-07-31T00:33:03.634Z,8.23
2018-07-31T00:35:32.385Z,8.33
2018-07-31T00:38:01.161Z,6.90
2018-07-31T00:40:29.908Z,4.80
2018-07-31T00:42:58.642Z,7.47
2018-07-31T00:45:27.381Z,5.40
2018-07-31T00:47:56.132Z,5.97
2018-07-31T00:50:24.852Z,7.90
2018-07-31T00:52:53.204Z,10.37
2018-07-31T00:55:21.899Z,7.07
2018-07-31T00:57:50.577Z,8.40
2018-07-31T01:00:19.315Z,6.80
2018-07-31T01:02:47.993Z,7.90
2018-07-31T01:05:16.705Z,7.50
2018-07-31T01:07:45.443Z,9.70
2018-07-31T01:10:14.224Z,8.13
2018-07-31T01:12:46.243Z,8.60
2018-07-31T01:15:19.990Z,6.80
2018-07-31T01:17:53.003Z,12.13
2018-07-31T01:20:28.245Z,14.70
2018-07-31T01:23:05.241Z,5.77
2018-07-31T01:25:39.138Z,6.63
2018-07-31T01:28:12.785Z,6.27
2018-07-31T01:30:46.879Z,13.40
2018-07-31T01:33:20.677Z,10.60
2018-07-31T01:35:54.865Z,6.47
2018-07-31T01:38:28.618Z,6.60
2018-07-31T01:41:03.243Z,9.17
2018-07-31T01:43:36.400Z,6.27
2018-07-31T01:46:13.278Z,6.57
2018-07-31T01:48:46.219Z,6.93
2018-07-31T01:51:19.570Z,6.70
2018-07-31T01:53:54.716Z,9.43
2018-07-31T01:56:29.564Z,7.33
2018-07-31T01:59:06.312Z,7.10
2018-07-31T02:01:40.476Z,8.90
2018-07-31T02:04:14.298Z,6.30
2018-07-31T02:06:47.350Z,6.90
2018-07-31T02:09:20.209Z,11.20
2018-07-31T02:11:53.325Z,6.00
2018-07-31T02:14:29.274Z,6.27
2018-07-31T02:17:02.657Z,9.13
2018-07-31T02:19:36.158Z,10.63
2018-07-31T02:22:07.831Z,7.23
2018-07-31T02:24:41.688Z,14.80
2018-07-31T02:27:16.045Z,6.83
2018-07-31T02:29:55.931Z,11.13
2018-07-31T02:32:30.611Z,6.70
2018-07-31T02:35:03.662Z,8.27
2018-07-31T02:37:36.540Z,11.77
2018-07-31T02:40:11.567Z,8.60
2018-07-31T02:42:44.348Z,6.60
2018-07-31T02:45:17.623Z,9.87
2018-07-31T02:47:51.558Z,11.93
2018-07-31T02:50:24.804Z,6.37
2018-07-31T02:52:57.677Z,9.80
2018-07-31T02:55:29.343Z,8.43
2018-07-31T02:58:02.851Z,8.50
2018-07-31T03:00:35.681Z,9.17
2018-07-31T03:03:08.055Z,6.63
2018-07-31T03:05:45.345Z,9.40
2018-07-31T03:08:17.950Z,9.93
2018-07-31T03:10:50.136Z,7.53
2018-07-31T03:13:23.262Z,11.00
2018-07-31T03:15:55.819Z,8.67
2018-07-31T03:18:28.788Z,6.67
2018-07-31T03:21:01.060Z,7.03
2018-07-31T03:23:32.287Z,7.50
2018-07-31T03:26:05.989Z,7.13
2018-07-31T03:28:38.193Z,5.60
2018-07-31T03:31:10.249Z,10.27
2018-07-31T03:33:42.746Z,7.30
2018-07-31T03:36:15.753Z,8.77
2018-07-31T03:38:49.717Z,6.97
2018-07-31T03:41:22.487Z,7.10
2018-07-31T03:43:55.483Z,8.47
2018-07-31T03:46:29.168Z,7.10
2018-07-31T03:49:01.637Z,9.53
2018-07-31T03:51:34.575Z,10.10
2018-07-31T03:54:07.608Z,7.07
2018-07-31T03:56:40.514Z,8.50
2018-07-31T03:59:13.510Z,11.77
2018-07-31T04:01:47.087Z,13.87
2018-07-31T04:04:19.950Z,10.23
2018-07-31T04:06:52.773Z,7.13
2018-07-31T04:09:25.663Z,10.20
2018-07-31T04:11:58.835Z,6.70
2018-07-31T04:14:32.842Z,12.40
2018-07-31T04:17:05.804Z,10.23
2018-07-31T04:19:38.767Z,11.20
2018-07-31T04:22:11.689Z,8.57
2018-07-31T04:24:44.276Z,9.00
2018-07-31T04:27:18.004Z,8.27
2018-07-31T04:29:51.699Z,7.80
2018-07-31T04:32:33.004Z,10.70
2018-07-31T04:35:07.297Z,12.53
2018-07-31T04:37:39.888Z,7.80
2018-07-31T04:40:12.899Z,14.43
2018-07-31T04:42:45.728Z,10.33
2018-07-31T04:45:19.813Z,12.80
2018-07-31T04:47:54.144Z,14.43
2018-07-31T04:50:28.169Z,15.30
2018-07-31T04:53:01.480Z,9.53
2018-07-31T04:55:34.287Z,11.23
2018-07-31T04:58:07.112Z,16.20
2018-07-31T05:00:39.820Z,16.83
2018-07-31T05:03:12.808Z,16.33
2018-07-31T05:05:45.653Z,9.90
2018-07-31T05:08:18.253Z,20.50
2018-07-31T05:10:50.980Z,8.10
2018-07-31T05:13:23.226Z,11.20
2018-07-31T05:15:55.873Z,15.23
2018-07-31T05:18:27.782Z,11.53
2018-07-31T05:21:01.423Z,30.67
2018-07-31T05:23:33.565Z,18.77
2018-07-31T05:26:05.631Z,9.40
2018-07-31T05:28:38.168Z,12.77
2018-07-31T05:31:10.701Z,18.80
2018-07-31T05:33:43.490Z,17.30
2018-07-31T05:36:14.662Z,17.30
2018-07-31T05:38:45.628Z,39.23
2018-07-31T05:41:17.958Z,14.80
2018-07-31T05:43:50.505Z,11.67
2018-07-31T05:46:22.552Z,14.03
2018-07-31T05:48:54.385Z,11.60
2018-07-31T05:51:27.388Z,32.27
2018-07-31T05:54:00.795Z,16.30
2018-07-31T05:56:33.780Z,19.97
2018-07-31T05:59:06.793Z,33.63
2018-07-31T06:01:39.900Z,22.27
2018-07-31T06:04:12.250Z,28.20
2018-07-31T06:06:45.845Z,38.03
2018-07-31T06:09:18.696Z,32.70
2018-07-31T06:11:52.630Z,21.37
2018-07-31T06:14:24.053Z,38.10
2018-07-31T06:16:56.633Z,22.97
2018-07-31T06:19:27.955Z,16.10
2018-07-31T06:22:02.847Z,34.80
2018-07-31T06:25:02.148Z,34.13
2018-07-31T06:27:36.156Z,34.70
2018-07-31T06:30:10.198Z,51.97
2018-07-31T06:32:42.207Z,38.37
2018-07-31T06:35:14.229Z,30.90
2018-07-31T06:37:45.039Z,42.57
2018-07-31T06:40:15.757Z,40.47
2018-07-31T06:42:48.111Z,19.07
2018-07-31T06:45:20.150Z,31.37
2018-07-31T06:47:52.506Z,22.63
2018-07-31T06:50:25.397Z,25.20
2018-07-31T06:52:57.936Z,38.93
2018-07-31T06:55:30.020Z,28.47
2018-07-31T06:58:03.041Z,52.63
2018-07-31T07:00:35.191Z,43.67
2018-07-31T07:03:06.975Z,31.07
2018-07-31T07:05:39.099Z,27.07
2018-07-31T07:08:15.131Z,24.53
2018-07-31T07:10:45.623Z,27.93
2018-07-31T07:13:16.748Z,22.57
2018-07-31T07:15:50.252Z,29.00
2018-07-31T07:18:19.560Z,36.83
2018-07-31T07:20:50.045Z,25.00
2018-07-31T07:23:21.143Z,47.47
2018-07-31T07:25:51.805Z,34.80
2018-07-31T07:28:22.151Z,40.87
2018-07-31T07:30:53.774Z,21.03
2018-07-31T07:33:24.936Z,33.37
2018-07-31T07:35:55.873Z,17.30
2018-07-31T07:38:28.812Z,24.10
2018-07-31T07:40:57.612Z,18.03
2018-07-31T07:43:26.617Z,20.07
2018-07-31T07:45:55.458Z,26.63
2018-07-31T07:48:24.530Z,18.47
2018-07-31T07:50:54.254Z,23.80
2018-07-31T07:53:23.932Z,15.03
2018-07-31T07:55:52.837Z,19.90
2018-07-31T07:58:21.978Z,15.77
2018-07-31T08:00:53.010Z,19.60
2018-07-31T08:03:22.194Z,26.67
2018-07-31T08:05:51.346Z,20.53
2018-07-31T08:08:20.524Z,12.83
2018-07-31T08:10:49.688Z,13.50
2018-07-31T08:13:18.567Z,19.80
2018-07-31T08:15:47.385Z,12.73
2018-07-31T08:18:35.054Z,19.40
2018-07-31T08:21:03.864Z,22.23
2018-07-31T08:23:32.794Z,15.57
2018-07-31T08:26:01.641Z,30.03
2018-07-31T08:28:30.762Z,17.93
2018-07-31T08:30:59.189Z,13.97
2018-07-31T08:33:28.180Z,21.83
2018-07-31T08:35:56.931Z,15.10
2018-07-31T08:38:25.982Z,9.50
2018-07-31T08:40:55.027Z,17.60
2018-07-31T08:43:24.144Z,17.40
2018-07-31T08:45:53.425Z,16.73
2018-07-31T08:48:22.289Z,12.73
2018-07-31T08:50:51.551Z,16.03
2018-07-31T08:53:20.567Z,19.57
2018-07-31T08:55:49.615Z,9.47
2018-07-31T08:58:18.447Z,8.93
2018-07-31T09:00:47.193Z,19.03
2018-07-31T09:03:16.058Z,16.90
2018-07-31T09:05:44.884Z,18.50
2018-07-31T09:08:13.816Z,11.67
2018-07-31T09:10:42.597Z,11.17
2018-07-31T09:13:11.443Z,20.73
2018-07-31T09:15:40.207Z,10.83
2018-07-31T09:18:09.120Z,9.63
2018-07-31T09:20:37.937Z,11.50
2018-07-31T09:23:06.798Z,11.40
2018-07-31T09:25:40.921Z,18.93
2018-07-31T09:28:09.737Z,12.37
2018-07-31T09:30:43.289Z,12.23
2018-07-31T09:33:12.105Z,15.80
2018-07-31T09:35:40.952Z,12.10
2018-07-31T09:38:10.010Z,16.30
2018-07-31T09:40:38.785Z,8.40
2018-07-31T09:43:07.561Z,14.33
2018-07-31T09:45:36.829Z,12.20
2018-07-31T09:48:05.646Z,12.50
2018-07-31T09:50:35.361Z,7.97
2018-07-31T09:53:04.205Z,10.07
2018-07-31T09:55:33.209Z,12.33
2018-07-31T09:58:01.948Z,10.03
2018-07-31T10:00:36.074Z,9.77
2018-07-31T10:03:05.136Z,15.60
2018-07-31T10:05:34.117Z,13.80
2018-07-31T10:08:03.233Z,17.77
2018-07-31T10:10:32.268Z,16.80
2018-07-31T10:13:01.447Z,7.57
2018-07-31T10:15:30.433Z,20.73
2018-07-31T10:17:59.645Z,16.63
2018-07-31T10:20:29.030Z,9.50
2018-07-31T10:22:57.780Z,13.60
2018-07-31T10:25:26.813Z,11.43
2018-07-31T10:27:56.175Z,10.13
2018-07-31T10:30:25.691Z,10.50
2018-07-31T10:32:54.747Z,9.87
2018-07-31T10:35:23.886Z,14.93
2018-07-31T10:37:53.246Z,9.53
2018-07-31T10:40:22.192Z,8.67
2018-07-31T10:42:51.275Z,7.03
2018-07-31T10:45:20.794Z,16.67
2018-07-31T10:47:49.973Z,7.70
2018-07-31T10:50:19.279Z,8.27
2018-07-31T10:52:48.520Z,10.33
2018-07-31T10:55:17.460Z,8.30
2018-07-31T10:57:46.852Z,9.50
2018-07-31T11:00:16.279Z,8.93
2018-07-31T11:02:45.344Z,8.13
2018-07-31T11:05:15.643Z,11.80
2018-07-31T11:07:44.903Z,13.40
2018-07-31T11:10:14.424Z,11.80
2018-07-31T11:12:44.648Z,12.07
2018-07-31T11:15:14.645Z,8.00
2018-07-31T11:17:44.175Z,13.70
2018-07-31T11:20:13.859Z,8.03
2018-07-31T11:22:43.014Z,7.57
2018-07-31T11:25:12.571Z,12.53
2018-07-31T11:27:42.041Z,21.43
2018-07-31T11:30:11.041Z,7.33
2018-07-31T11:32:40.435Z,18.30
2018-07-31T11:35:09.977Z,11.40
2018-07-31T11:37:39.646Z,9.97
2018-07-31T11:40:09.423Z,9.07
2018-07-31T11:42:38.541Z,12.70
2018-07-31T11:45:08.208Z,14.37
2018-07-31T11:47:36.972Z,8.20
2018-07-31T11:50:06.980Z,14.03
2018-07-31T11:52:36.475Z,8.10
2018-07-31T11:55:06.097Z,8.27
2018-07-31T11:57:35.354Z,13.77
2018-07-31T12:00:06.208Z,15.57
2018-07-31T12:02:34.914Z,15.20
2018-07-31T12:05:04.230Z,7.13
2018-07-31T12:07:33.212Z,14.20
2018-07-31T12:10:02.782Z,11.43
2018-07-31T12:12:32.523Z,10.30
2018-07-31T12:15:08.309Z,8.70
2018-07-31T12:17:37.661Z,10.93
2018-07-31T12:20:06.561Z,10.20
2018-07-31T12:22:35.446Z,7.93
2018-07-31T12:25:04.719Z,7.13
2018-07-31T12:27:33.468Z,6.70
2018-07-31T12:30:02.843Z,7.13
2018-07-31T12:32:32.278Z,7.30
2018-07-31T12:35:01.575Z,5.90
2018-07-31T12:37:30.812Z,7.13
2018-07-31T12:40:00.473Z,6.87
2018-07-31T12:42:30.005Z,6.83
2018-07-31T12:44:58.991Z,7.83
2018-07-31T12:47:28.698Z,7.00
2018-07-31T12:50:20.368Z,6.17
2018-07-31T12:52:50.559Z,5.80
2018-07-31T12:55:19.354Z,7.33
2018-07-31T12:57:48.910Z,6.70
2018-07-31T13:00:17.950Z,6.13
2018-07-31T13:02:47.257Z,9.30
2018-07-31T13:05:16.581Z,6.77
2018-07-31T13:07:46.129Z,6.13
2018-07-31T13:10:16.040Z,9.83
2018-07-31T13:12:45.336Z,8.33
2018-07-31T13:15:15.410Z,6.87
2018-07-31T13:17:44.926Z,7.30
2018-07-31T13:20:14.872Z,12.77
2018-07-31T13:22:44.546Z,11.53
2018-07-31T13:25:14.106Z,10.90
2018-07-31T13:27:44.035Z,6.50
2018-07-31T13:30:13.671Z,6.57
2018-07-31T13:32:45.622Z,6.63
2018-07-31T13:35:15.636Z,10.63
2018-07-31T13:37:46.224Z,8.40
2018-07-31T13:40:16.349Z,10.93
2018-07-31T13:42:45.574Z,6.53
2018-07-31T13:45:14.733Z,7.77
2018-07-31T13:47:44.578Z,11.87
2018-07-31T13:50:13.805Z,6.53
2018-07-31T13:52:43.220Z,9.30
2018-07-31T13:55:12.468Z,7.23
2018-07-31T13:57:41.439Z,5.97
2018-07-31T14:00:10.765Z,7.70
2018-07-31T14:02:39.977Z,16.37
2018-07-31T14:05:09.178Z,8.43
2018-07-31T14:07:38.180Z,8.40
2018-07-31T14:10:07.533Z,8.77
2018-07-31T14:12:37.053Z,6.70
2018-07-31T14:15:06.831Z,8.47
2018-07-31T14:17:35.957Z,10.23
2018-07-31T14:20:06.186Z,10.07
2018-07-31T14:22:35.823Z,7.50
2018-07-31T14:25:05.654Z,9.80
2018-07-31T14:27:35.151Z,6.73
2018-07-31T14:30:04.588Z,6.97
2018-07-31T14:32:33.427Z,8.30
2018-07-31T14:35:02.582Z,5.70
2018-07-31T14:37:31.883Z,9.33
2018-07-31T14:40:01.947Z,7.50
2018-07-31T14:42:31.086Z,8.83
2018-07-31T14:45:00.232Z,7.83
2018-07-31T14:47:29.658Z,11.10
2018-07-31T14:49:59.208Z,7.10
2018-07-31T14:52:28.505Z,7.07
2018-07-31T14:54:57.396Z,5.73
2018-07-31T14:57:26.397Z,5.90
2018-07-31T14:59:55.561Z,8.27
2018-07-31T15:02:24.073Z,10.90
2018-07-31T15:04:53.203Z,7.67
2018-07-31T15:07:22.278Z,7.17
2018-07-31T15:09:51.200Z,9.53
2018-07-31T15:12:20.026Z,8.73
2018-07-31T15:14:48.891Z,8.03
2018-07-31T15:17:17.850Z,6.17
2018-07-31T15:19:46.979Z,5.17
2018-07-31T15:22:16.114Z,6.47
2018-07-31T15:24:44.969Z,9.70
2018-07-31T15:27:14.076Z,6.73
2018-07-31T15:29:43.258Z,5.67
2018-07-31T15:32:18.674Z,7.83
2018-07-31T15:34:47.695Z,12.20
2018-07-31T15:37:16.432Z,6.20
2018-07-31T15:39:45.548Z,6.27
2018-07-31T15:42:15.045Z,8.97
2018-07-31T15:44:43.971Z,6.50
2018-07-31T15:47:13.164Z,7.77
2018-07-31T15:49:42.083Z,9.73
2018-07-31T15:52:11.048Z,6.17
2018-07-31T15:54:40.077Z,9.47
2018-07-31T15:57:09.172Z,7.00
2018-07-31T15:59:38.329Z,5.93
2018-07-31T16:02:07.847Z,6.50
2018-07-31T16:04:36.658Z,6.97
2018-07-31T16:07:05.473Z,6.70
2018-07-31T16:09:34.622Z,8.57
2018-07-31T16:12:03.392Z,13.10
2018-07-31T16:14:32.251Z,9.73
2018-07-31T16:17:01.128Z,8.20
2018-07-31T16:19:29.917Z,7.70
2018-07-31T16:21:59.130Z,8.47
2018-07-31T16:24:28.488Z,7.80
2018-07-31T16:26:57.730Z,14.07
2018-07-31T16:29:27.058Z,9.23
2018-07-31T16:31:56.079Z,7.77
2018-07-31T16:34:25.119Z,9.77
2018-07-31T16:36:54.176Z,18.93
2018-07-31T16:39:23.155Z,14.73
2018-07-31T16:41:52.144Z,8.63
2018-07-31T16:44:20.884Z,6.73
2018-07-31T16:46:49.955Z,8.40
2018-07-31T16:49:18.977Z,7.80
2018-07-31T16:51:47.977Z,6.60
2018-07-31T16:54:16.895Z,7.20
2018-07-31T16:56:45.753Z,6.83
2018-07-31T16:59:14.450Z,6.70
2018-07-31T17:01:43.453Z,6.47
2018-07-31T17:04:12.305Z,7.87
2018-07-31T17:06:41.277Z,6.90
2018-07-31T17:09:10.514Z,7.57
2018-07-31T17:11:39.205Z,8.10
2018-07-31T17:14:08.052Z,8.63
2018-07-31T17:16:37.054Z,18.53
2018-07-31T17:19:06.060Z,6.37
2018-07-31T17:21:35.142Z,7.23
2018-07-31T17:24:04.270Z,7.83
2018-07-31T17:26:33.283Z,7.47
2018-07-31T17:29:02.373Z,7.57
2018-07-31T17:31:31.453Z,11.50
2018-07-31T17:34:00.754Z,8.07
2018-07-31T17:36:29.872Z,7.50
2018-07-31T17:38:59.132Z,5.60
2018-07-31T17:41:28.504Z,6.67
2018-07-31T17:43:57.840Z,8.80
2018-07-31T17:46:27.006Z,11.40
2018-07-31T17:48:55.882Z,12.37
2018-07-31T17:51:29.993Z,7.20
2018-07-31T17:53:58.959Z,10.03
2018-07-31T17:56:28.151Z,6.80
2018-07-31T17:58:57.030Z,8.40
2018-07-31T18:01:26.192Z,12.20
2018-07-31T18:03:55.282Z,5.67
2018-07-31T18:06:24.873Z,5.77
2018-07-31T18:08:53.583Z,6.90
2018-07-31T18:11:23.895Z,7.40
2018-07-31T18:13:52.744Z,6.10
2018-07-31T18:16:21.899Z,7.93
2018-07-31T18:18:50.413Z,12.43
2018-07-31T18:21:19.363Z,6.90
2018-07-31T18:23:48.360Z,5.20
2018-07-31T18:26:17.594Z,6.73
2018-07-31T18:28:46.818Z,8.00
2018-07-31T18:31:15.360Z,9.63
2018-07-31T18:33:44.493Z,8.20
2018-07-31T18:36:13.431Z,9.07
2018-07-31T18:38:42.644Z,5.97
2018-07-31T18:41:12.087Z,8.60
2018-07-31T18:43:41.280Z,10.03
2018-07-31T18:46:10.345Z,6.80
2018-07-31T18:48:39.576Z,8.00
2018-07-31T18:51:08.537Z,6.53
2018-07-31T18:53:37.353Z,7.90
2018-07-31T18:56:06.500Z,11.17
2018-07-31T18:58:35.710Z,5.27
2018-07-31T19:01:04.676Z,7.80
2018-07-31T19:03:33.656Z,8.30
2018-07-31T19:06:02.620Z,10.47
2018-07-31T19:08:31.577Z,12.77
2018-07-31T19:11:00.700Z,7.60
2018-07-31T19:13:29.839Z,7.60
2018-07-31T19:15:58.897Z,8.80
2018-07-31T19:18:27.962Z,8.80
2018-07-31T19:20:56.772Z,6.93
2018-07-31T19:23:25.686Z,9.47
2018-07-31T19:25:54.375Z,5.90
2018-07-31T19:28:23.836Z,4.97
2018-07-31T19:30:52.889Z,6.07
2018-07-31T19:33:22.276Z,5.73
2018-07-31T19:35:51.109Z,6.30
2018-07-31T19:38:20.298Z,7.03
2018-07-31T19:40:49.721Z,5.07
2018-07-31T19:43:18.525Z,5.27
2018-07-31T19:45:47.369Z,8.57
2018-07-31T19:48:16.514Z,5.93
2018-07-31T19:50:45.748Z,5.47
2018-07-31T19:53:14.794Z,6.30
2018-07-31T19:55:43.722Z,6.90
2018-07-31T19:58:12.701Z,13.23
2018-07-31T20:00:41.493Z,7.00
2018-07-31T20:03:15.178Z,5.20
2018-07-31T20:05:44.094Z,10.33
2018-07-31T20:08:13.026Z,8.37
2018-07-31T20:10:42.033Z,8.27
2018-07-31T20:13:10.924Z,9.83
2018-07-31T20:15:40.223Z,8.93
2018-07-31T20:18:09.044Z,10.93
2018-07-31T20:20:37.785Z,8.03
2018-07-31T20:23:06.657Z,6.70
2018-07-31T20:25:35.474Z,9.43
2018-07-31T20:28:04.296Z,13.30
2018-07-31T20:30:33.398Z,5.80
2018-07-31T20:33:03.097Z,6.60
2018-07-31T20:35:32.159Z,7.33
2018-07-31T20:38:01.163Z,7.57
2018-07-31T20:40:30.004Z,6.73
2018-07-31T20:42:58.972Z,6.27
2018-07-31T20:45:28.144Z,10.40
2018-07-31T20:47:57.109Z,9.50
2018-07-31T20:50:25.937Z,7.33
2018-07-31T20:52:55.370Z,9.73
2018-07-31T20:55:24.247Z,6.60
2018-07-31T20:57:53.413Z,13.50
2018-07-31T21:00:21.980Z,8.77
2018-07-31T21:02:51.239Z,7.47
2018-07-31T21:05:20.753Z,6.30
2018-07-31T21:07:50.162Z,4.90
2018-07-31T21:10:19.401Z,7.10
2018-07-31T21:12:48.322Z,9.03
2018-07-31T21:15:17.167Z,6.47
2018-07-31T21:17:45.935Z,6.47
2018-07-31T21:20:14.688Z,9.50
2018-07-31T21:22:43.522Z,4.40
2018-07-31T21:25:12.262Z,10.10
2018-07-31T21:27:40.724Z,6.23
2018-07-31T21:30:09.576Z,8.87
2018-07-31T21:32:38.714Z,11.40
2018-07-31T21:35:08.046Z,9.10
2018-07-31T21:37:36.800Z,8.10
2018-07-31T21:40:05.776Z,4.77
2018-07-31T21:42:34.594Z,6.60
2018-07-31T21:45:04.772Z,6.30
2018-07-31T21:47:34.366Z,4.43
2018-07-31T21:50:03.713Z,5.10
2018-07-31T21:52:32.881Z,6.57
2018-07-31T21:55:02.063Z,9.17
2018-07-31T21:57:30.922Z,5.37
2018-07-31T22:00:00.240Z,5.40
2018-07-31T22:02:29.060Z,9.13
2018-07-31T22:04:57.990Z,6.50
2018-07-31T22:07:27.198Z,9.00
2018-07-31T22:09:56.285Z,6.23
2018-07-31T22:12:25.375Z,6.50
2018-07-31T22:14:54.226Z,9.40
2018-07-31T22:17:22.956Z,5.23
2018-07-31T22:19:51.757Z,6.43
2018-07-31T22:22:20.585Z,10.40
2018-07-31T22:24:49.763Z,5.40
2018-07-31T22:27:18.878Z,6.20
2018-07-31T22:29:47.699Z,7.47
2018-07-31T22:32:16.518Z,5.27
2018-07-31T22:34:44.832Z,7.40
2018-07-31T22:37:13.550Z,4.90
2018-07-31T22:39:42.532Z,9.50
2018-07-31T22:42:11.531Z,6.07
2018-07-31T22:44:40.307Z,12.20
2018-07-31T22:47:09.062Z,8.80
2018-07-31T22:49:37.792Z,11.30
2018-07-31T22:52:07.110Z,6.70
2018-07-31T22:54:35.813Z,5.50
2018-07-31T22:57:04.775Z,5.33
2018-07-31T22:59:33.526Z,5.80
2018-07-31T23:02:02.277Z,5.70
2018-07-31T23:04:31.011Z,8.17
2018-07-31T23:06:59.844Z,7.37
2018-07-31T23:09:28.588Z,5.60
2018-07-31T23:11:57.463Z,8.90
2018-07-31T23:14:26.165Z,6.40
2018-07-31T23:16:55.086Z,6.43
2018-07-31T23:19:23.906Z,7.33
2018-07-31T23:21:52.640Z,7.57
2018-07-31T23:24:21.452Z,6.27
2018-07-31T23:26:50.241Z,5.73
2018-07-31T23:29:18.920Z,5.80
2018-07-31T23:31:47.788Z,6.13
2018-07-31T23:34:16.128Z,6.43
2018-07-31T23:36:44.906Z,6.70
2018-07-31T23:39:13.633Z,6.17
2018-07-31T23:41:42.296Z,9.73
2018-07-31T23:44:11.026Z,6.13
2018-07-31T23:46:40.097Z,10.13
2018-07-31T23:49:08.864Z,6.47
2018-07-31T23:51:37.605Z,5.20
2018-07-31T23:54:06.421Z,4.93
2018-07-31T23:56:35.151Z,5.90
2018-07-31T23:59:03.860Z,7.37
